Time;durP1;ratioP1;P1;durP2;ratioP2;P2;SDS_P1;SDS_P2;PMS_P1;PMS_P2;Temp;Humidity;BMP_temperature;BMP_pressure;BME280_temperature;BME280_humidity;BME280_pressure;Samples;Min_cycle;Max_cycle;Signal;HPM_P1;HPM_P2
2023/10/16 00:01:27;;;;;;;43.45;6.75;;;;;;;;;;5027703;28;20395;-44
2023/10/16 00:03:57;;;;;;;41.63;6.70;;;;;;;;;;5032991;28;20487;-43
2023/10/16 00:06:24;;;;;;;34.35;7.45;;;;;;;;;;5047744;28;20041;-43
2023/10/16 00:08:59;;;;;;;30.92;6.38;;;;;;;;;;5032519;28;20029;-43
2023/10/16 00:11:27;;;;;;;28.90;5.72;;;;;;;;;;5017183;28;20490;-43
2023/10/16 00:13:56;;;;;;;37.67;6.05;;;;;;;;;;5030439;28;20029;-43
2023/10/16 00:16:24;;;;;;;28.75;5.57;;;;;;;;;;5032452;28;20136;-43
2023/10/16 00:18:53;;;;;;;31.13;6.07;;;;;;;;;;5033099;28;20128;-44
2023/10/16 00:21:20;;;;;;;38.70;5.60;;;;;;;;;;5027126;28;20037;-44
2023/10/16 00:23:47;;;;;;;26.83;5.35;;;;;;;;;;5036563;28;20112;-43
2023/10/16 00:26:21;;;;;;;34.90;5.28;;;;;;;;;;5025721;28;20030;-43
2023/10/16 00:28:52;;;;;;;30.83;5.65;;;;;;;;;;5030432;28;20034;-44
2023/10/16 00:31:22;;;;;;;29.07;5.43;;;;;;;;;;5033001;28;20479;-45
2023/10/16 00:33:51;;;;;;;29.05;5.50;;;;;;;;;;5032315;28;20108;-45
2023/10/16 00:36:18;;;;;;;31.10;5.20;;;;;;;;;;5032732;28;20034;-43
2023/10/16 00:38:51;;;;;;;33.35;5.38;;;;;;;;;;5032411;28;20025;-43
2023/10/16 00:41:23;;;;;;;24.10;4.43;;;;;;;;;;5031400;28;20042;-44
2023/10/16 00:43:49;;;;;;;;;;;;;;;;;;5033113;28;20423;-46
2023/10/16 00:46:26;;;;;;;19.23;4.30;;;;;;;;;;5015475;28;19909;-42
2023/10/16 00:48:54;;;;;;;29.38;5.80;;;;;;;;;;5027875;28;20383;-44
2023/10/16 00:51:21;;;;;;;21.55;5.32;;;;;;;;;;5025725;28;20064;-44
2023/10/16 00:53:48;;;;;;;18.70;4.47;;;;;;;;;;5013578;28;20034;-48
2023/10/16 00:56:18;;;;;;;18.55;4.97;;;;;;;;;;5023855;28;20033;-48
2023/10/16 00:58:48;;;;;;;20.23;4.40;;;;;;;;;;5023445;28;20491;-48
2023/10/16 01:01:15;;;;;;;19.70;4.15;;;;;;;;;;5025056;28;20029;-43
2023/10/16 01:03:45;;;;;;;22.30;3.92;;;;;;;;;;5026302;28;20108;-44
2023/10/16 01:06:16;;;;;;;19.25;3.90;;;;;;;;;;5031197;28;20022;-44
2023/10/16 01:08:49;;;;;;;15.98;3.65;;;;;;;;;;5022414;28;20464;-45
2023/10/16 01:11:20;;;;;;;16.13;3.70;;;;;;;;;;5025076;28;20038;-47
2023/10/16 01:13:48;;;;;;;24.70;3.95;;;;;;;;;;5012787;28;20033;-45
2023/10/16 01:16:16;;;;;;;17.73;3.42;;;;;;;;;;5025710;28;20026;-48
2023/10/16 01:18:44;;;;;;;17.38;3.10;;;;;;;;;;5017992;28;20471;-44
2023/10/16 01:21:14;;;;;;;15.65;3.30;;;;;;;;;;5022553;28;20091;-50
2023/10/16 01:23:44;;;;;;;15.73;2.70;;;;;;;;;;5015000;28;20038;-45
2023/10/16 01:26:15;;;;;;;16.08;3.33;;;;;;;;;;5019464;28;20047;-48
2023/10/16 01:28:42;;;;;;;17.33;3.67;;;;;;;;;;5029217;28;20045;-44
2023/10/16 01:31:09;;;;;;;11.68;3.25;;;;;;;;;;5031691;28;20464;-45
2023/10/16 01:33:39;;;;;;;10.32;3.22;;;;;;;;;;5031320;28;20068;-48
2023/10/16 01:36:07;;;;;;;14.57;3.35;;;;;;;;;;5031434;28;20061;-44
2023/10/16 01:38:34;;;;;;;18.23;3.33;;;;;;;;;;5031363;28;20116;-49
2023/10/16 01:43:34;;;;;;;18.33;3.65;;;;;;;;;;5031277;28;20499;-44
2023/10/16 01:46:08;;;;;;;20.10;3.08;;;;;;;;;;5021285;28;20391;-47
2023/10/16 01:48:42;;;;;;;15.25;3.50;;;;;;;;;;5024427;28;20116;-47
2023/10/16 01:51:15;;;;;;;17.48;2.80;;;;;;;;;;5030491;28;20025;-46
2023/10/16 01:53:43;;;;;;;10.23;3.15;;;;;;;;;;5026830;28;20043;-45
2023/10/16 01:56:13;;;;;;;11.48;3.22;;;;;;;;;;5031255;28;20021;-51
2023/10/16 01:58:44;;;;;;;17.23;2.88;;;;;;;;;;5029980;28;20037;-43
2023/10/16 02:01:18;;;;;;;11.13;3.00;;;;;;;;;;5026196;28;20018;-44
2023/10/16 02:03:46;;;;;;;14.27;2.67;;;;;;;;;;5016920;28;20049;-46
2023/10/16 02:06:13;;;;;;;10.75;2.28;;;;;;;;;;5022011;28;20060;-45
2023/10/16 02:08:41;;;;;;;10.95;2.47;;;;;;;;;;5031331;28;20038;-44
2023/10/16 02:11:10;;;;;;;9.18;2.25;;;;;;;;;;5026193;28;20026;-45
2023/10/16 02:13:41;;;;;;;10.82;2.20;;;;;;;;;;5031025;28;20526;-43
2023/10/16 02:16:17;;;;;;;6.00;1.80;;;;;;;;;;5030920;28;20065;-44
2023/10/16 02:18:47;;;;;;;4.43;1.80;;;;;;;;;;5028843;28;20029;-45
2023/10/16 02:21:15;;;;;;;9.48;1.98;;;;;;;;;;5030393;28;20052;-47
2023/10/16 02:23:49;;;;;;;19.73;3.13;;;;;;;;;;5030818;28;20492;-46
2023/10/16 02:26:19;;;;;;;25.15;2.45;;;;;;;;;;5027921;28;20036;-43
2023/10/16 02:28:47;;;;;;;13.70;2.35;;;;;;;;;;5025149;28;20561;-47
2023/10/16 02:31:18;;;;;;;20.75;2.83;;;;;;;;;;5029573;28;20034;-57
2023/10/16 02:33:50;;;;;;;13.88;2.13;;;;;;;;;;5030558;28;20032;-44
2023/10/16 02:36:23;;;;;;;17.48;2.50;;;;;;;;;;5030941;28;20029;-46
2023/10/16 02:38:50;;;;;;;15.48;2.35;;;;;;;;;;5030510;28;20034;-47
2023/10/16 02:41:20;;;;;;;16.10;2.55;;;;;;;;;;5030644;28;20061;-51
2023/10/16 02:43:48;;;;;;;14.30;2.30;;;;;;;;;;5030745;28;20058;-44
2023/10/16 02:46:21;;;;;;;8.27;1.85;;;;;;;;;;5030837;28;20017;-52
2023/10/16 02:48:48;;;;;;;11.60;2.10;;;;;;;;;;5026263;28;20037;-47
2023/10/16 02:51:16;;;;;;;7.25;1.95;;;;;;;;;;5026429;28;20017;-45
2023/10/16 02:53:45;;;;;;;11.48;1.77;;;;;;;;;;5022832;28;20103;-44
2023/10/16 02:58:42;;;;;;;10.30;2.30;;;;;;;;;;5034769;28;20025;-46
2023/10/16 03:01:18;;;;;;;7.90;1.80;;;;;;;;;;5022934;28;20045;-53
2023/10/16 03:03:46;;;;;;;7.22;1.30;;;;;;;;;;5034171;28;20052;-51
2023/10/16 03:06:13;;;;;;;5.68;1.52;;;;;;;;;;5034598;28;20037;-50
2023/10/16 03:08:48;;;;;;;8.57;1.90;;;;;;;;;;5022011;28;20044;-41
2023/10/16 03:11:15;;;;;;;8.68;1.83;;;;;;;;;;5029154;28;20109;-49
2023/10/16 03:13:51;;;;;;;9.98;1.42;;;;;;;;;;5026308;28;20033;-51
2023/10/16 03:16:29;;;;;;;8.57;1.42;;;;;;;;;;5032894;28;20095;-54
2023/10/16 03:19:16;;;;;;;8.32;1.73;;;;;;;;;;5032388;28;20026;-48
2023/10/16 03:21:45;;;;;;;7.13;1.58;;;;;;;;;;5033972;28;20037;-45
2023/10/16 03:24:12;;;;;;;7.40;1.60;;;;;;;;;;5033478;28;20040;-44
2023/10/16 03:26:42;;;;;;;6.97;1.42;;;;;;;;;;5031267;28;20060;-44
2023/10/16 03:29:10;;;;;;;8.85;1.30;;;;;;;;;;5034287;28;20037;-44
2023/10/16 03:31:39;;;;;;;4.13;1.25;;;;;;;;;;5033893;28;20103;-48
2023/10/16 03:34:11;;;;;;;4.70;1.00;;;;;;;;;;5034266;28;20021;-43
2023/10/16 03:36:40;;;;;;;5.85;1.40;;;;;;;;;;5032980;28;20036;-43
2023/10/16 03:39:11;;;;;;;6.75;1.52;;;;;;;;;;5034079;28;20377;-46
2023/10/16 03:41:39;;;;;;;4.38;1.25;;;;;;;;;;5022515;28;20116;-44
2023/10/16 03:44:26;;;;;;;7.05;1.35;;;;;;;;;;5033469;28;20083;-45
2023/10/16 03:46:55;;;;;;;3.92;1.40;;;;;;;;;;5033641;28;20117;-44
2023/10/16 03:49:23;;;;;;;6.35;1.63;;;;;;;;;;5034111;28;20108;-43
2023/10/16 03:51:50;;;;;;;4.32;1.25;;;;;;;;;;5033513;28;20088;-47
2023/10/16 03:54:30;;;;;;;4.32;1.90;;;;;;;;;;5032817;28;20368;-46
2023/10/16 03:56:59;;;;;;;7.13;1.55;;;;;;;;;;5033138;28;20095;-45
2023/10/16 03:59:29;;;;;;;7.93;1.90;;;;;;;;;;5033682;28;20041;-45
2023/10/16 04:01:56;;;;;;;9.40;2.30;;;;;;;;;;5033378;28;20503;-45
2023/10/16 04:04:27;;;;;;;7.20;1.60;;;;;;;;;;5033805;28;20026;-46
2023/10/16 04:06:56;;;;;;;12.15;1.95;;;;;;;;;;5032759;28;20847;-45
2023/10/16 04:09:32;;;;;;;6.43;1.50;;;;;;;;;;5033096;28;20029;-50
2023/10/16 04:12:06;;;;;;;5.55;1.63;;;;;;;;;;5032090;28;20033;-45
2023/10/16 04:15:23;;;;;;;8.50;1.70;;;;;;;;;;5033441;28;20173;-47
2023/10/16 04:17:26;;;;;;;6.82;1.83;;;;;;;;;;5027463;28;20709;-46
2023/10/16 04:19:59;;;;;;;5.65;1.67;;;;;;;;;;5033197;28;20469;-50
2023/10/16 04:22:37;;;;;;;7.22;1.77;;;;;;;;;;5032701;28;20041;-50
2023/10/16 04:25:17;;;;;;;5.53;1.70;;;;;;;;;;5027410;28;20030;-48
2023/10/16 04:27:44;;;;;;;6.57;2.00;;;;;;;;;;5032521;28;20045;-48
2023/10/16 04:33:13;;;;;;;5.35;1.42;;;;;;;;;;5032913;28;20388;-50
2023/10/16 04:43:48;;;;;;;6.95;1.83;;;;;;;;;;5032802;28;20111;-47
2023/10/16 04:46:20;;;;;;;4.38;1.65;;;;;;;;;;5032748;28;20017;-45
2023/10/16 04:48:54;;;;;;;3.30;1.35;;;;;;;;;;5032669;28;20100;-46
2023/10/16 04:51:36;;;;;;;7.53;1.60;;;;;;;;;;5032823;28;20511;-45
2023/10/16 04:54:27;;;;;;;6.80;1.65;;;;;;;;;;5030586;28;20484;-47
2023/10/16 05:02:41;;;;;;;3.38;1.40;;;;;;;;;;5006813;28;20376;-45
2023/10/16 05:08:06;;;;;;;4.80;1.42;;;;;;;;;;5032430;28;20578;-48
2023/10/16 05:16:35;;;;;;;6.90;1.33;;;;;;;;;;5013194;28;20104;-46
2023/10/16 05:22:03;;;;;;;6.25;1.40;;;;;;;;;;4993153;28;20034;-52
2023/10/16 06:14:11;;;;;;;4.72;1.27;;;;;;;;;;5031798;28;20095;-50
2023/10/16 06:16:42;;;;;;;6.33;1.17;;;;;;;;;;5031607;28;20037;-51
2023/10/16 06:19:17;;;;;;;3.10;1.05;;;;;;;;;;5031646;28;20018;-50
2023/10/16 06:21:47;;;;;;;3.90;1.27;;;;;;;;;;5031473;28;20079;-48
2023/10/16 06:24:33;;;;;;;6.32;1.33;;;;;;;;;;5031741;28;20115;-45
2023/10/16 06:27:01;;;;;;;3.88;1.10;;;;;;;;;;5031493;28;20168;-45
2023/10/16 06:29:35;;;;;;;3.88;1.20;;;;;;;;;;5031577;28;20025;-48
2023/10/16 06:32:25;;;;;;;4.05;1.45;;;;;;;;;;5031044;28;20514;-45
2023/10/16 06:34:57;;;;;;;4.65;1.40;;;;;;;;;;5031418;28;20491;-45
2023/10/16 06:37:23;;;;;;;;;;;;;;;;;;5031687;28;20510;-47
2023/10/16 06:39:54;;;;;;;4.82;1.30;;;;;;;;;;5031471;28;19909;-47
2023/10/16 06:42:22;;;;;;;4.53;1.40;;;;;;;;;;5031091;28;20712;-45
2023/10/16 06:44:53;;;;;;;5.22;1.33;;;;;;;;;;5031486;28;20104;-49
2023/10/16 06:47:24;;;;;;;3.03;1.33;;;;;;;;;;5031221;28;20518;-46
2023/10/16 06:49:51;;;;;;;3.83;1.10;;;;;;;;;;5031379;28;20025;-47
2023/10/16 06:52:18;;;;;;;4.97;1.13;;;;;;;;;;5031306;28;20104;-46
2023/10/16 06:54:45;;;;;;;5.65;1.23;;;;;;;;;;5031406;28;20033;-51
2023/10/16 06:57:12;;;;;;;2.80;1.10;;;;;;;;;;5031065;28;20030;-46
2023/10/16 06:59:46;;;;;;;4.18;1.13;;;;;;;;;;5031267;28;20442;-47
2023/10/16 07:02:19;;;;;;;4.43;1.25;;;;;;;;;;5031182;28;20034;-47
2023/10/16 07:04:47;;;;;;;3.10;1.10;;;;;;;;;;5031105;28;20030;-47
2023/10/16 07:07:18;;;;;;;2.75;1.20;;;;;;;;;;5031017;28;20509;-44
2023/10/16 07:09:48;;;;;;;2.90;0.95;;;;;;;;;;5031074;28;20104;-45
2023/10/16 07:12:19;;;;;;;2.53;1.17;;;;;;;;;;5031043;28;20031;-49
2023/10/16 07:15:08;;;;;;;1.98;1.05;;;;;;;;;;5031213;28;20026;-47
2023/10/16 07:17:35;;;;;;;2.47;1.10;;;;;;;;;;5030945;28;20045;-46
2023/10/16 07:20:17;;;;;;;3.33;1.10;;;;;;;;;;5031130;28;20029;-47
2023/10/16 07:22:44;;;;;;;2.28;1.30;;;;;;;;;;5031025;28;20072;-44
2023/10/16 07:25:24;;;;;;;4.03;1.30;;;;;;;;;;5031135;28;20033;-48
2023/10/16 07:27:58;;;;;;;3.13;1.17;;;;;;;;;;5031188;28;20045;-44
2023/10/16 07:30:25;;;;;;;3.15;1.10;;;;;;;;;;5029611;28;20025;-49
2023/10/16 07:32:54;;;;;;;2.92;1.08;;;;;;;;;;5030952;28;20025;-48
2023/10/16 07:35:22;;;;;;;3.60;1.25;;;;;;;;;;5030874;28;20033;-50
2023/10/16 07:37:52;;;;;;;2.50;0.90;;;;;;;;;;5030981;28;20479;-49
2023/10/16 07:40:25;;;;;;;3.70;0.93;;;;;;;;;;5030838;28;20447;-50
2023/10/16 07:42:53;;;;;;;2.22;1.00;;;;;;;;;;5031574;28;20084;-50
2023/10/16 07:45:20;;;;;;;5.10;0.93;;;;;;;;;;5034531;28;20081;-50
2023/10/16 07:47:48;;;;;;;2.97;1.00;;;;;;;;;;5034348;28;20121;-51
2023/10/16 07:50:16;;;;;;;2.40;0.93;;;;;;;;;;5034142;28;20030;-49
2023/10/16 07:52:43;;;;;;;2.72;0.90;;;;;;;;;;5033185;28;20029;-47
2023/10/16 07:55:19;;;;;;;1.98;0.85;;;;;;;;;;5034039;28;20033;-48
2023/10/16 07:57:48;;;;;;;4.20;1.17;;;;;;;;;;5034229;28;20040;-48
2023/10/16 08:00:15;;;;;;;3.20;1.15;;;;;;;;;;5033913;28;20059;-45
2023/10/16 08:02:45;;;;;;;2.83;0.82;;;;;;;;;;5034254;28;20033;-47
2023/10/16 08:05:16;;;;;;;2.47;0.95;;;;;;;;;;5034106;28;20059;-47
2023/10/16 08:07:52;;;;;;;2.63;1.00;;;;;;;;;;5033960;28;20087;-48
2023/10/16 08:10:41;;;;;;;3.20;1.10;;;;;;;;;;5033748;28;20033;-47
2023/10/16 08:13:14;;;;;;;3.03;1.10;;;;;;;;;;5033924;28;20064;-46
2023/10/16 08:15:55;;;;;;;2.28;0.95;;;;;;;;;;5033852;28;20113;-45
2023/10/16 08:18:25;;;;;;;2.17;0.93;;;;;;;;;;5033907;28;20026;-46
2023/10/16 08:21:05;;;;;;;2.55;1.00;;;;;;;;;;5033527;28;20839;-44
2023/10/16 08:23:35;;;;;;;3.10;1.08;;;;;;;;;;5033603;28;20056;-46
2023/10/16 08:26:45;;;;;;;3.25;0.93;;;;;;;;;;5033551;28;20060;-45
2023/10/16 08:28:54;;;;;;;2.05;0.90;;;;;;;;;;5025401;28;20041;-46
2023/10/16 08:31:24;;;;;;;2.90;1.02;;;;;;;;;;5033342;28;20548;-44
2023/10/16 08:33:51;;;;;;;1.65;1.00;;;;;;;;;;5033575;28;20029;-51
2023/10/16 08:36:18;;;;;;;2.55;0.90;;;;;;;;;;5033492;28;20037;-46
2023/10/16 08:38:55;;;;;;;2.85;1.02;;;;;;;;;;5033501;28;20104;-44
2023/10/16 08:41:42;;;;;;;2.13;0.90;;;;;;;;;;5032993;28;20472;-44
2023/10/16 08:44:18;;;;;;;2.28;0.80;;;;;;;;;;5033166;28;20035;-48
2023/10/16 08:46:53;;;;;;;4.60;1.10;;;;;;;;;;5033254;28;20037;-45
2023/10/16 08:49:22;;;;;;;5.25;1.38;;;;;;;;;;5033427;28;20033;-44
2023/10/16 08:52:03;;;;;;;2.05;0.90;;;;;;;;;;5033027;28;20036;-44
2023/10/16 08:57:32;;;;;;;1.35;0.70;;;;;;;;;;4972080;28;20042;-44
2023/10/16 09:00:00;;;;;;;1.67;0.80;;;;;;;;;;5020606;28;20038;-47
2023/10/16 09:02:28;;;;;;;2.88;0.90;;;;;;;;;;5033036;28;20033;-47
2023/10/16 09:04:55;;;;;;;1.73;0.80;;;;;;;;;;5032874;28;20075;-44
2023/10/16 09:07:25;;;;;;;1.65;0.70;;;;;;;;;;5032850;28;20033;-44
2023/10/16 09:09:53;;;;;;;2.00;0.80;;;;;;;;;;5032714;28;20072;-48
2023/10/16 09:12:26;;;;;;;2.15;0.90;;;;;;;;;;5032922;28;20029;-50
2023/10/16 09:14:54;;;;;;;2.28;0.80;;;;;;;;;;5032823;28;20060;-45
2023/10/16 09:17:25;;;;;;;2.47;0.70;;;;;;;;;;5032684;28;20041;-45
2023/10/16 09:19:53;;;;;;;2.92;0.93;;;;;;;;;;5032647;28;20026;-49
2023/10/16 09:22:23;;;;;;;3.25;1.00;;;;;;;;;;5032484;28;20112;-45
2023/10/16 09:24:51;;;;;;;1.77;0.70;;;;;;;;;;5032431;28;20030;-45
2023/10/16 09:27:22;;;;;;;1.20;0.70;;;;;;;;;;5032483;28;20080;-48
2023/10/16 09:30:01;;;;;;;2.35;0.90;;;;;;;;;;5032298;28;20396;-49
2023/10/16 09:32:39;;;;;;;2.28;0.70;;;;;;;;;;5032301;28;20439;-47
2023/10/16 09:35:13;;;;;;;1.42;0.70;;;;;;;;;;5032583;28;20444;-50
2023/10/16 09:37:40;;;;;;;2.22;0.60;;;;;;;;;;5032163;28;20091;-49
2023/10/16 09:40:18;;;;;;;1.35;0.70;;;;;;;;;;5032272;28;20033;-50
2023/10/16 09:43:08;;;;;;;2.72;0.60;;;;;;;;;;5032095;28;20057;-49
2023/10/16 09:45:36;;;;;;;2.00;0.70;;;;;;;;;;5032110;28;20037;-47
2023/10/16 09:48:19;;;;;;;1.58;0.68;;;;;;;;;;5032127;28;20072;-46
2023/10/16 09:50:47;;;;;;;4.28;0.80;;;;;;;;;;5043875;28;20087;-49
2023/10/16 09:53:17;;;;;;;1.77;0.70;;;;;;;;;;5051833;28;20487;-45
2023/10/16 09:55:48;;;;;;;2.33;0.90;;;;;;;;;;5052230;28;20383;-49
2023/10/16 09:58:18;;;;;;;1.92;0.80;;;;;;;;;;5051740;28;20040;-50
2023/10/16 10:00:49;;;;;;;2.75;0.98;;;;;;;;;;5051751;28;20107;-44
2023/10/16 10:03:17;;;;;;;2.17;0.88;;;;;;;;;;5051776;28;20112;-45
2023/10/16 10:08:38;;;;;;;1.10;0.80;;;;;;;;;;5051967;28;20064;-45
2023/10/16 10:11:18;;;;;;;2.55;0.90;;;;;;;;;;5051618;28;20471;-52
2023/10/16 10:14:08;;;;;;;1.98;0.60;;;;;;;;;;5051696;28;20390;-44
2023/10/16 10:16:35;;;;;;;1.20;0.60;;;;;;;;;;5011973;28;20041;-46
2023/10/16 10:19:10;;;;;;;1.45;0.68;;;;;;;;;;5011895;28;20048;-44
2023/10/16 10:21:46;;;;;;;3.22;0.70;;;;;;;;;;5011791;28;20030;-44
2023/10/16 10:24:15;;;;;;;1.52;0.80;;;;;;;;;;5012011;28;20038;-44
2023/10/16 10:26:51;;;;;;;2.17;0.95;;;;;;;;;;5011706;28;20044;-45
2023/10/16 10:29:20;;;;;;;1.63;0.60;;;;;;;;;;5011767;28;20373;-44
2023/10/16 10:31:47;;;;;;;1.88;0.57;;;;;;;;;;5011701;28;20042;-45
2023/10/16 10:34:18;;;;;;;1.25;0.60;;;;;;;;;;5065768;28;20033;-46
2023/10/16 10:36:46;;;;;;;4.40;0.80;;;;;;;;;;5051533;28;20055;-46
2023/10/16 10:39:22;;;;;;;2.22;0.80;;;;;;;;;;5051457;28;20032;-49
2023/10/16 10:42:03;;;;;;;4.25;0.63;;;;;;;;;;5050995;28;20114;-46
2023/10/16 10:44:37;;;;;;;0.82;0.55;;;;;;;;;;5051312;28;20029;-45
2023/10/16 10:47:24;;;;;;;1.35;0.60;;;;;;;;;;5051205;28;20503;-46
2023/10/16 10:49:58;;;;;;;1.00;0.60;;;;;;;;;;5051152;28;20036;-46
2023/10/16 10:52:27;;;;;;;2.33;0.70;;;;;;;;;;5051047;28;20099;-45
2023/10/16 10:55:06;;;;;;;1.55;0.68;;;;;;;;;;5051192;28;20108;-45
2023/10/16 10:57:34;;;;;;;2.42;0.80;;;;;;;;;;5051115;28;20037;-44
2023/10/16 11:05:23;;;;;;;3.00;0.60;;;;;;;;;;5051492;28;20036;-45
2023/10/16 11:10:41;;;;;;;0.90;0.60;;;;;;;;;;5051018;28;20040;-45
2023/10/16 11:13:09;;;;;;;1.52;0.70;;;;;;;;;;5051154;28;20040;-46
2023/10/16 11:15:36;;;;;;;1.13;0.60;;;;;;;;;;5051113;28;20506;-44
2023/10/16 11:18:22;;;;;;;2.53;1.00;;;;;;;;;;5051012;28;20034;-44
2023/10/16 11:20:51;;;;;;;1.73;0.80;;;;;;;;;;5034851;28;20037;-45
2023/10/16 11:23:21;;;;;;;4.35;0.95;;;;;;;;;;5034971;28;20116;-44
2023/10/16 11:25:52;;;;;;;2.33;0.80;;;;;;;;;;5034807;28;20029;-47
2023/10/16 11:28:28;;;;;;;2.53;0.70;;;;;;;;;;5034747;28;20559;-45
2023/10/16 11:30:57;;;;;;;2.88;1.08;;;;;;;;;;5033905;28;20021;-47
2023/10/16 11:34:00;;;;;;;1.85;0.63;;;;;;;;;;5034688;28;20065;-48
2023/10/16 11:36:31;;;;;;;4.90;0.70;;;;;;;;;;5034593;28;20380;-46
2023/10/16 11:39:02;;;;;;;2.15;0.68;;;;;;;;;;5034673;28;20395;-46
2023/10/16 11:41:32;;;;;;;2.87;0.70;;;;;;;;;;5034393;28;20108;-47
2023/10/16 11:44:12;;;;;;;4.50;0.60;;;;;;;;;;5034187;28;20307;-47
2023/10/16 11:47:03;;;;;;;2.15;0.73;;;;;;;;;;5034296;28;20391;-46
2023/10/16 11:49:37;;;;;;;2.47;0.60;;;;;;;;;;5033909;28;20148;-45
2023/10/16 11:52:19;;;;;;;3.13;0.85;;;;;;;;;;5033642;28;20064;-45
2023/10/16 11:54:48;;;;;;;0.80;0.52;;;;;;;;;;5033580;28;20036;-45
2023/10/16 11:57:16;;;;;;;1.85;0.70;;;;;;;;;;5033805;28;20044;-43
2023/10/16 11:59:44;;;;;;;1.65;0.65;;;;;;;;;;5030630;28;20061;-45
2023/10/16 12:02:12;;;;;;;3.53;0.75;;;;;;;;;;5033546;28;20025;-42
2023/10/16 12:04:40;;;;;;;4.85;0.95;;;;;;;;;;5025005;28;20025;-42
2023/10/16 12:07:07;;;;;;;1.40;0.82;;;;;;;;;;5031520;28;20045;-43
2023/10/16 12:09:52;;;;;;;4.63;0.85;;;;;;;;;;5032807;28;20534;-40
2023/10/16 12:12:19;;;;;;;3.38;0.88;;;;;;;;;;5032490;28;20025;-41
2023/10/16 12:14:50;;;;;;;7.25;0.90;;;;;;;;;;5033254;28;20026;-43
2023/10/16 12:17:21;;;;;;;5.38;1.10;;;;;;;;;;5032721;28;20021;-43
2023/10/16 12:19:51;;;;;;;5.22;1.02;;;;;;;;;;5033659;28;20091;-40
2023/10/16 12:22:20;;;;;;;3.60;1.02;;;;;;;;;;5032586;28;20112;-41
2023/10/16 12:24:48;;;;;;;7.40;0.90;;;;;;;;;;5033187;28;20087;-38
2023/10/16 12:27:15;;;;;;;5.72;1.20;;;;;;;;;;5033524;28;20083;-37
2023/10/16 12:29:44;;;;;;;9.00;1.13;;;;;;;;;;5030801;28;20025;-37
2023/10/16 12:32:12;;;;;;;3.92;0.80;;;;;;;;;;5033525;28;20033;-45
2023/10/16 12:34:40;;;;;;;6.78;0.90;;;;;;;;;;5031810;28;20033;-37
2023/10/16 12:37:08;;;;;;;2.10;0.80;;;;;;;;;;5032470;28;20033;-41
2023/10/16 12:39:45;;;;;;;3.28;0.70;;;;;;;;;;5037984;28;20128;-38
2023/10/16 12:42:13;;;;;;;7.78;1.25;;;;;;;;;;5014937;28;20088;-41
2023/10/16 12:44:40;;;;;;;6.78;1.00;;;;;;;;;;5031458;28;20038;-41
2023/10/16 12:47:07;;;;;;;5.45;1.08;;;;;;;;;;5030360;28;20407;-43
2023/10/16 12:49:34;;;;;;;9.00;1.23;;;;;;;;;;5031805;28;20573;-43
2023/10/16 12:52:01;;;;;;;5.20;0.98;;;;;;;;;;5031994;28;20095;-39
2023/10/16 12:54:28;;;;;;;6.20;1.08;;;;;;;;;;5032890;28;20045;-39
2023/10/16 12:56:57;;;;;;;4.38;1.10;;;;;;;;;;5032559;28;20114;-42
2023/10/16 12:59:27;;;;;;;9.13;0.85;;;;;;;;;;5026464;28;20045;-44
2023/10/16 13:01:54;;;;;;;5.47;1.10;;;;;;;;;;5026775;28;20041;-43
2023/10/16 13:04:25;;;;;;;8.90;1.30;;;;;;;;;;5027971;28;20331;-39
2023/10/16 13:06:52;;;;;;;6.60;1.10;;;;;;;;;;5031077;28;20124;-39
2023/10/16 13:09:19;;;;;;;8.55;1.33;;;;;;;;;;5028816;28;20029;-38
2023/10/16 13:11:49;;;;;;;2.75;0.70;;;;;;;;;;5029245;28;20025;-38
2023/10/16 13:14:17;;;;;;;9.10;1.30;;;;;;;;;;5031580;28;20029;-40
2023/10/16 13:16:53;;;;;;;6.55;1.00;;;;;;;;;;5025337;28;20025;-39
2023/10/16 13:19:20;;;;;;;2.30;0.90;;;;;;;;;;5027423;28;20033;-39
2023/10/16 13:21:51;;;;;;;4.40;1.00;;;;;;;;;;5023736;28;20130;-39
2023/10/16 13:24:23;;;;;;;4.50;0.98;;;;;;;;;;5031695;28;20415;-38
2023/10/16 13:26:53;;;;;;;4.47;1.10;;;;;;;;;;5028860;28;20048;-39
2023/10/16 13:29:21;;;;;;;9.93;1.38;;;;;;;;;;5031653;28;20575;-37
2023/10/16 13:31:48;;;;;;;8.32;1.55;;;;;;;;;;5036650;28;20033;-38
2023/10/16 13:34:17;;;;;;;15.30;1.90;;;;;;;;;;5065746;28;20033;-38
2023/10/16 13:37:33;;;;;;;15.80;2.15;;;;;;;;;;5025087;28;20033;-39
2023/10/16 13:39:35;;;;;;;16.88;2.20;;;;;;;;;;5022510;28;20041;-39
2023/10/16 13:42:02;;;;;;;32.10;2.67;;;;;;;;;;5030342;28;20053;-38
2023/10/16 13:44:32;;;;;;;20.10;2.55;;;;;;;;;;5031885;28;20083;-38
2023/10/16 13:47:01;;;;;;;24.65;3.08;;;;;;;;;;5031627;28;20052;-39
2023/10/16 13:49:28;;;;;;;19.85;2.22;;;;;;;;;;5030430;28;20041;-39
2023/10/16 13:51:56;;;;;;;26.48;3.25;;;;;;;;;;5024951;28;20031;-37
2023/10/16 13:54:24;;;;;;;19.58;2.42;;;;;;;;;;5032051;28;20032;-38
2023/10/16 13:56:51;;;;;;;21.42;2.85;;;;;;;;;;5028080;28;20045;-39
2023/10/16 13:59:18;;;;;;;17.67;2.60;;;;;;;;;;5032419;28;20030;-39
2023/10/16 14:01:46;;;;;;;14.02;2.33;;;;;;;;;;5030355;28;20055;-38
2023/10/16 14:04:14;;;;;;;20.30;2.70;;;;;;;;;;5031786;28;20034;-37
2023/10/16 14:06:53;;;;;;;12.55;1.98;;;;;;;;;;5020960;28;20029;-39
2023/10/16 14:09:27;;;;;;;18.05;2.13;;;;;;;;;;5024254;28;20087;-37
2023/10/16 14:11:58;;;;;;;17.55;2.40;;;;;;;;;;5030792;28;20045;-39
2023/10/16 14:14:26;;;;;;;18.13;2.97;;;;;;;;;;5031043;28;20041;-38
2023/10/16 14:16:54;;;;;;;14.23;2.03;;;;;;;;;;5029653;28;20025;-39
2023/10/16 14:19:22;;;;;;;17.98;2.53;;;;;;;;;;5026957;28;20759;-38
2023/10/16 14:21:55;;;;;;;18.42;2.53;;;;;;;;;;5027946;28;20694;-38
2023/10/16 14:24:24;;;;;;;22.95;2.72;;;;;;;;;;5028029;28;20033;-39
2023/10/16 14:26:55;;;;;;;28.77;2.72;;;;;;;;;;5029176;28;20032;-37
2023/10/16 14:29:26;;;;;;;27.85;2.83;;;;;;;;;;5029709;28;20037;-38
2023/10/16 14:31:56;;;;;;;24.85;3.60;;;;;;;;;;5027680;28;20022;-37
2023/10/16 14:34:23;;;;;;;17.05;3.40;;;;;;;;;;5029855;28;20052;-37
2023/10/16 14:36:51;;;;;;;22.35;3.63;;;;;;;;;;5027491;28;20057;-39
2023/10/16 14:39:19;;;;;;;28.50;3.28;;;;;;;;;;5030867;28;20479;-37
2023/10/16 14:41:47;;;;;;;25.60;3.47;;;;;;;;;;5027459;28;20029;-38
2023/10/16 14:44:15;;;;;;;25.83;3.38;;;;;;;;;;5029364;28;20475;-35
2023/10/16 14:46:42;;;;;;;21.73;3.10;;;;;;;;;;5026938;28;20086;-37
2023/10/16 14:49:10;;;;;;;28.58;3.90;;;;;;;;;;5030925;28;20670;-35
2023/10/16 14:51:40;;;;;;;31.58;3.83;;;;;;;;;;5031807;28;20071;-35
2023/10/16 14:54:12;;;;;;;62.00;6.90;;;;;;;;;;5035055;28;20029;-35
2023/10/16 14:56:42;;;;;;;54.88;6.20;;;;;;;;;;5028254;28;20476;-35
2023/10/16 14:59:11;;;;;;;46.67;5.63;;;;;;;;;;5015489;28;20373;-35
2023/10/16 15:01:38;;;;;;;38.80;5.47;;;;;;;;;;5015287;28;20030;-37
2023/10/16 15:04:08;;;;;;;40.92;5.15;;;;;;;;;;5015442;28;20026;-35
2023/10/16 15:06:35;;;;;;;36.25;5.05;;;;;;;;;;5015255;28;20396;-37
2023/10/16 15:09:09;;;;;;;51.20;5.78;;;;;;;;;;5015161;28;20033;-37
2023/10/16 15:11:36;;;;;;;34.20;4.47;;;;;;;;;;5015031;28;20030;-35
2023/10/16 15:14:03;;;;;;;34.70;4.45;;;;;;;;;;5015206;28;20511;-36
2023/10/16 15:16:32;;;;;;;33.60;3.85;;;;;;;;;;5035402;28;20033;-37
2023/10/16 15:19:00;;;;;;;32.63;5.15;;;;;;;;;;5015067;28;20030;-37
2023/10/16 15:21:27;;;;;;;36.67;5.47;;;;;;;;;;5014793;28;20408;-37
2023/10/16 15:23:55;;;;;;;30.30;4.88;;;;;;;;;;5015048;28;20030;-37
2023/10/16 15:26:23;;;;;;;26.17;4.00;;;;;;;;;;5014882;28;20384;-37
2023/10/16 15:28:52;;;;;;;23.73;3.97;;;;;;;;;;5014874;28;20092;-37
2023/10/16 15:31:19;;;;;;;23.83;3.45;;;;;;;;;;5014702;28;20394;-37
2023/10/16 15:33:47;;;;;;;26.20;2.85;;;;;;;;;;5014731;28;20477;-35
2023/10/16 15:36:21;;;;;;;21.98;3.47;;;;;;;;;;5014884;28;20396;-35
2023/10/16 15:38:48;;;;;;;24.67;3.17;;;;;;;;;;5014808;28;20481;-36
2023/10/16 15:41:16;;;;;;;17.50;3.28;;;;;;;;;;5014596;28;20022;-36
2023/10/16 15:43:45;;;;;;;19.42;3.13;;;;;;;;;;5014397;28;20131;-36
2023/10/16 15:46:38;;;;;;;15.85;2.50;;;;;;;;;;5014544;28;20049;-36
2023/10/16 15:49:06;;;;;;;13.45;2.95;;;;;;;;;;5013518;28;20045;-36
2023/10/16 15:51:33;;;;;;;17.02;2.97;;;;;;;;;;5014332;28;20084;-35
2023/10/16 15:54:00;;;;;;;16.60;2.95;;;;;;;;;;5014413;28;20030;-36
2023/10/16 15:56:29;;;;;;;27.45;3.28;;;;;;;;;;5014434;28;20022;-37
2023/10/16 15:58:57;;;;;;;17.75;2.95;;;;;;;;;;5014371;28;20100;-38
2023/10/16 16:01:25;;;;;;;15.75;2.53;;;;;;;;;;5014233;28;20030;-40
2023/10/16 16:03:57;;;;;;;11.73;2.83;;;;;;;;;;5013091;28;20151;-37
2023/10/16 16:06:24;;;;;;;9.57;2.75;;;;;;;;;;5014223;28;20091;-36
2023/10/16 16:08:51;;;;;;;16.30;2.15;;;;;;;;;;5014032;28;20042;-36
2023/10/16 16:11:19;;;;;;;16.27;2.40;;;;;;;;;;5031078;28;20029;-39
2023/10/16 16:13:46;;;;;;;9.68;2.10;;;;;;;;;;5013976;28;20029;-37
2023/10/16 16:16:14;;;;;;;12.88;2.35;;;;;;;;;;5014093;28;20480;-37
2023/10/16 16:18:41;;;;;;;8.90;2.28;;;;;;;;;;5014044;28;20040;-37
2023/10/16 16:21:13;;;;;;;16.15;2.10;;;;;;;;;;5013944;28;20028;-37
2023/10/16 16:23:40;;;;;;;12.02;2.25;;;;;;;;;;5013271;28;20472;-37
2023/10/16 16:26:09;;;;;;;11.93;2.58;;;;;;;;;;5024825;28;20499;-36
2023/10/16 16:28:36;;;;;;;10.70;1.88;;;;;;;;;;5029328;28;20041;-36
2023/10/16 16:31:03;;;;;;;13.52;2.90;;;;;;;;;;5030628;28;20033;-36
2023/10/16 16:33:30;;;;;;;19.15;3.08;;;;;;;;;;5027545;28;20438;-39
2023/10/16 16:35:57;;;;;;;13.27;2.20;;;;;;;;;;5028678;28;20391;-37
2023/10/16 16:38:25;;;;;;;15.65;2.72;;;;;;;;;;5032404;28;20399;-38